sensor_id;sensor_type;location;lat;lon;timestamp;pressure;altitude;pressure_sealevel;temperature;humidity
9935;BME280;5006;41.828;23.478;2023-05-19T00:01:00;90421.88;;;21.39;59.25
9935;BME280;5006;41.828;23.478;2023-05-19T00:02:07;90419.41;;;21.23;59.26
9935;BME280;5006;41.828;23.478;2023-05-19T00:03:13;90413.63;;;20.26;61.07
9935;BME280;5006;41.828;23.478;2023-05-19T00:04:19;90408.31;;;20.66;60.27
9935;BME280;5006;41.828;23.478;2023-05-19T00:05:26;90410.22;;;20.78;61.04
9935;BME280;5006;41.828;23.478;2023-05-19T00:06:32;90406.34;;;19.89;62.84
9935;BME280;5006;41.828;23.478;2023-05-19T00:07:40;90402.34;;;20.37;62.10
9935;BME280;5006;41.828;23.478;2023-05-19T00:08:49;90410.66;;;20.55;61.32
9935;BME280;5006;41.828;23.478;2023-05-19T00:09:55;90410.16;;;20.90;60.79
9935;BME280;5006;41.828;23.478;2023-05-19T00:11:00;90397.06;;;21.46;59.27
9935;BME280;5006;41.828;23.478;2023-05-19T00:12:10;90403.16;;;21.59;58.52
9935;BME280;5006;41.828;23.478;2023-05-19T00:13:15;90412.31;;;21.83;58.34
9935;BME280;5006;41.828;23.478;2023-05-19T00:14:22;90409.41;;;21.29;58.95
9935;BME280;5006;41.828;23.478;2023-05-19T00:15:29;90414.50;;;21.09;59.33
9935;BME280;5006;41.828;23.478;2023-05-19T00:16:36;90412.69;;;21.15;59.21
9935;BME280;5006;41.828;23.478;2023-05-19T00:17:42;90414.53;;;20.66;60.09
9935;BME280;5006;41.828;23.478;2023-05-19T00:18:48;90407.41;;;20.90;59.91
9935;BME280;5006;41.828;23.478;2023-05-19T00:19:54;90408.41;;;20.84;60.06
9935;BME280;5006;41.828;23.478;2023-05-19T00:21:00;90413.38;;;20.98;59.66
9935;BME280;5006;41.828;23.478;2023-05-19T00:22:05;90416.94;;;20.64;60.16
9935;BME280;5006;41.828;23.478;2023-05-19T00:23:11;90416.31;;;21.12;59.53
9935;BME280;5006;41.828;23.478;2023-05-19T00:24:16;90418.06;;;20.97;59.18
9935;BME280;5006;41.828;23.478;2023-05-19T00:25:22;90410.81;;;21.73;58.16
9935;BME280;5006;41.828;23.478;2023-05-19T00:26:27;90411.59;;;21.43;57.89
9935;BME280;5006;41.828;23.478;2023-05-19T00:27:41;90414.13;;;21.68;58.28
9935;BME280;5006;41.828;23.478;2023-05-19T00:28:46;90415.53;;;21.42;57.98
9935;BME280;5006;41.828;23.478;2023-05-19T00:29:52;90422.38;;;22.04;57.50
9935;BME280;5006;41.828;23.478;2023-05-19T00:30:57;90419.91;;;21.31;58.56
9935;BME280;5006;41.828;23.478;2023-05-19T00:32:04;90422.97;;;21.51;58.15
9935;BME280;5006;41.828;23.478;2023-05-19T00:33:09;90415.53;;;21.03;58.64
9935;BME280;5006;41.828;23.478;2023-05-19T00:34:15;90416.75;;;20.59;59.44
9935;BME280;5006;41.828;23.478;2023-05-19T00:35:20;90421.31;;;19.60;60.78
9935;BME280;5006;41.828;23.478;2023-05-19T00:36:28;90416.75;;;19.57;62.14
9935;BME280;5006;41.828;23.478;2023-05-19T00:37:33;90422.50;;;20.39;60.56
9935;BME280;5006;41.828;23.478;2023-05-19T00:38:39;90409.66;;;20.61;60.48
9935;BME280;5006;41.828;23.478;2023-05-19T00:39:45;90415.50;;;20.81;59.94
9935;BME280;5006;41.828;23.478;2023-05-19T00:40:51;90404.78;;;20.56;60.89
9935;BME280;5006;41.828;23.478;2023-05-19T00:41:56;90405.63;;;20.75;60.38
9935;BME280;5006;41.828;23.478;2023-05-19T00:43:03;90412.09;;;20.68;60.41
9935;BME280;5006;41.828;23.478;2023-05-19T00:44:09;90411.19;;;20.41;61.85
9935;BME280;5006;41.828;23.478;2023-05-19T00:45:15;90407.22;;;19.86;62.48
9935;BME280;5006;41.828;23.478;2023-05-19T00:46:20;90412.50;;;19.69;62.82
9935;BME280;5006;41.828;23.478;2023-05-19T00:47:27;90414.66;;;19.86;62.35
9935;BME280;5006;41.828;23.478;2023-05-19T00:48:32;90410.00;;;20.08;61.88
9935;BME280;5006;41.828;23.478;2023-05-19T00:49:39;90424.69;;;20.87;60.64
9935;BME280;5006;41.828;23.478;2023-05-19T00:50:45;90410.69;;;20.33;60.93
9935;BME280;5006;41.828;23.478;2023-05-19T00:51:51;90419.00;;;19.83;61.76
9935;BME280;5006;41.828;23.478;2023-05-19T00:52:57;90414.59;;;20.32;60.77
9935;BME280;5006;41.828;23.478;2023-05-19T00:54:22;90417.41;;;21.15;59.32
9935;BME280;5006;41.828;23.478;2023-05-19T00:55:30;90410.47;;;20.49;60.47
9935;BME280;5006;41.828;23.478;2023-05-19T00:56:37;90417.38;;;21.54;58.86
9935;BME280;5006;41.828;23.478;2023-05-19T00:57:43;90412.63;;;21.37;57.66
9935;BME280;5006;41.828;23.478;2023-05-19T00:58:51;90417.91;;;21.31;58.12
9935;BME280;5006;41.828;23.478;2023-05-19T00:59:58;90409.81;;;21.49;57.75
9935;BME280;5006;41.828;23.478;2023-05-19T01:01:03;90409.03;;;21.49;57.44
9935;BME280;5006;41.828;23.478;2023-05-19T01:02:11;90406.75;;;20.56;59.56
9935;BME280;5006;41.828;23.478;2023-05-19T01:03:16;90403.44;;;20.39;60.25
9935;BME280;5006;41.828;23.478;2023-05-19T01:04:24;90403.09;;;19.48;62.06
9935;BME280;5006;41.828;23.478;2023-05-19T01:05:29;90403.50;;;20.48;59.82
9935;BME280;5006;41.828;23.478;2023-05-19T01:06:35;90395.50;;;19.77;61.73
9935;BME280;5006;41.828;23.478;2023-05-19T01:07:42;90395.81;;;19.33;62.69
9935;BME280;5006;41.828;23.478;2023-05-19T01:08:47;90388.91;;;18.41;64.21
9935;BME280;5006;41.828;23.478;2023-05-19T01:09:53;90388.03;;;17.87;65.82
9935;BME280;5006;41.828;23.478;2023-05-19T01:10:59;90388.84;;;18.28;65.60
9935;BME280;5006;41.828;23.478;2023-05-19T01:12:04;90393.69;;;18.62;66.00
9935;BME280;5006;41.828;23.478;2023-05-19T01:13:29;90400.09;;;18.43;65.90
9935;BME280;5006;41.828;23.478;2023-05-19T01:14:36;90394.88;;;18.48;65.99
9935;BME280;5006;41.828;23.478;2023-05-19T01:15:57;90389.13;;;18.59;66.12
9935;BME280;5006;41.828;23.478;2023-05-19T01:17:08;90389.94;;;18.84;65.49
9935;BME280;5006;41.828;23.478;2023-05-19T01:18:22;90387.00;;;18.79;65.73
9935;BME280;5006;41.828;23.478;2023-05-19T01:19:49;90392.00;;;19.43;63.78
9935;BME280;5006;41.828;23.478;2023-05-19T01:21:08;90393.97;;;19.76;62.46
9935;BME280;5006;41.828;23.478;2023-05-19T01:22:29;90396.38;;;19.74;62.94
9935;BME280;5006;41.828;23.478;2023-05-19T01:23:41;90391.16;;;19.79;62.59
9935;BME280;5006;41.828;23.478;2023-05-19T01:25:22;90388.84;;;19.78;61.67
9935;BME280;5006;41.828;23.478;2023-05-19T01:26:57;90395.31;;;19.59;63.32
9935;BME280;5006;41.828;23.478;2023-05-19T01:28:23;90400.16;;;19.43;61.79
9935;BME280;5006;41.828;23.478;2023-05-19T01:29:47;90400.19;;;19.18;62.34
9935;BME280;5006;41.828;23.478;2023-05-19T01:31:03;90401.28;;;20.00;59.41
9935;BME280;5006;41.828;23.478;2023-05-19T01:32:11;90393.97;;;20.10;59.43
9935;BME280;5006;41.828;23.478;2023-05-19T01:33:21;90389.09;;;19.71;60.51
9935;BME280;5006;41.828;23.478;2023-05-19T01:34:28;90392.34;;;20.77;59.04
9935;BME280;5006;41.828;23.478;2023-05-19T01:35:37;90394.31;;;20.55;58.95
9935;BME280;5006;41.828;23.478;2023-05-19T01:36:46;90396.78;;;20.19;60.14
9935;BME280;5006;41.828;23.478;2023-05-19T01:37:54;90383.88;;;19.18;63.01
9935;BME280;5006;41.828;23.478;2023-05-19T01:39:02;90395.03;;;19.32;63.51
9935;BME280;5006;41.828;23.478;2023-05-19T01:40:08;90391.31;;;19.51;62.86
9935;BME280;5006;41.828;23.478;2023-05-19T01:41:15;90385.56;;;19.12;64.40
9935;BME280;5006;41.828;23.478;2023-05-19T01:42:22;90389.81;;;19.13;64.15
9935;BME280;5006;41.828;23.478;2023-05-19T01:43:28;90386.66;;;19.02;64.59
9935;BME280;5006;41.828;23.478;2023-05-19T01:44:33;90391.34;;;19.26;64.30
9935;BME280;5006;41.828;23.478;2023-05-19T01:45:39;90385.03;;;19.75;62.90
9935;BME280;5006;41.828;23.478;2023-05-19T01:46:46;90382.56;;;21.19;60.23
9935;BME280;5006;41.828;23.478;2023-05-19T01:47:54;90384.81;;;19.82;61.23
9935;BME280;5006;41.828;23.478;2023-05-19T01:49:00;90379.25;;;19.86;61.24
9935;BME280;5006;41.828;23.478;2023-05-19T01:50:07;90382.34;;;20.52;60.85
9935;BME280;5006;41.828;23.478;2023-05-19T01:51:13;90384.44;;;20.27;60.68
9935;BME280;5006;41.828;23.478;2023-05-19T01:52:21;90381.34;;;20.37;60.54
9935;BME280;5006;41.828;23.478;2023-05-19T01:53:27;90380.66;;;20.76;59.85
9935;BME280;5006;41.828;23.478;2023-05-19T01:54:33;90378.81;;;20.21;60.64
9935;BME280;5006;41.828;23.478;2023-05-19T01:55:42;90370.03;;;19.37;63.09
9935;BME280;5006;41.828;23.478;2023-05-19T01:56:51;90371.75;;;18.81;64.51
9935;BME280;5006;41.828;23.478;2023-05-19T01:58:07;90379.28;;;18.65;65.04
9935;BME280;5006;41.828;23.478;2023-05-19T01:59:30;90378.97;;;19.25;64.11
9935;BME280;5006;41.828;23.478;2023-05-19T02:00:50;90376.84;;;20.43;61.00
9935;BME280;5006;41.828;23.478;2023-05-19T02:02:01;90381.84;;;21.27;59.48
9935;BME280;5006;41.828;23.478;2023-05-19T02:03:18;90379.56;;;21.74;58.04
9935;BME280;5006;41.828;23.478;2023-05-19T02:04:33;90376.53;;;21.72;58.15
9935;BME280;5006;41.828;23.478;2023-05-19T02:05:47;90372.03;;;22.41;56.43
9935;BME280;5006;41.828;23.478;2023-05-19T02:07:00;90372.00;;;22.68;55.37
9935;BME280;5006;41.828;23.478;2023-05-19T02:08:13;90375.75;;;20.62;59.02
9935;BME280;5006;41.828;23.478;2023-05-19T02:09:28;90381.84;;;20.23;59.94
9935;BME280;5006;41.828;23.478;2023-05-19T02:10:40;90376.69;;;19.70;61.83
9935;BME280;5006;41.828;23.478;2023-05-19T02:11:52;90376.38;;;20.02;61.65
9935;BME280;5006;41.828;23.478;2023-05-19T02:13:00;90383.97;;;20.07;62.13
9935;BME280;5006;41.828;23.478;2023-05-19T02:14:15;90388.09;;;20.76;60.32
9935;BME280;5006;41.828;23.478;2023-05-19T02:15:24;90386.59;;;20.84;59.77
9935;BME280;5006;41.828;23.478;2023-05-19T02:16:30;90389.72;;;20.95;59.43
9935;BME280;5006;41.828;23.478;2023-05-19T02:17:43;90387.91;;;20.70;59.84
9935;BME280;5006;41.828;23.478;2023-05-19T02:18:51;90396.34;;;19.86;60.77
9935;BME280;5006;41.828;23.478;2023-05-19T02:19:57;90389.75;;;20.09;60.58
9935;BME280;5006;41.828;23.478;2023-05-19T02:21:02;90395.28;;;20.39;60.22
9935;BME280;5006;41.828;23.478;2023-05-19T02:22:07;90390.88;;;20.63;59.90
9935;BME280;5006;41.828;23.478;2023-05-19T02:23:12;90392.72;;;20.88;59.08
9935;BME280;5006;41.828;23.478;2023-05-19T02:24:19;90395.16;;;20.21;60.45
9935;BME280;5006;41.828;23.478;2023-05-19T02:25:26;90397.06;;;19.53;61.84
9935;BME280;5006;41.828;23.478;2023-05-19T02:26:31;90393.38;;;18.47;65.52
9935;BME280;5006;41.828;23.478;2023-05-19T02:27:37;90398.16;;;18.56;66.11
9935;BME280;5006;41.828;23.478;2023-05-19T02:28:45;90399.81;;;19.16;64.68
9935;BME280;5006;41.828;23.478;2023-05-19T02:29:50;90395.03;;;19.91;62.40
9935;BME280;5006;41.828;23.478;2023-05-19T02:30:56;90389.91;;;20.27;61.11
9935;BME280;5006;41.828;23.478;2023-05-19T02:32:01;90386.16;;;20.33;60.27
9935;BME280;5006;41.828;23.478;2023-05-19T02:33:08;90391.81;;;19.71;62.14
9935;BME280;5006;41.828;23.478;2023-05-19T02:34:15;90387.75;;;19.17;63.64
9935;BME280;5006;41.828;23.478;2023-05-19T02:35:22;90381.41;;;19.91;62.03
9935;BME280;5006;41.828;23.478;2023-05-19T02:36:27;90386.00;;;18.98;63.50
9935;BME280;5006;41.828;23.478;2023-05-19T02:37:33;90384.28;;;19.29;62.38
9935;BME280;5006;41.828;23.478;2023-05-19T02:38:39;90379.59;;;19.04;62.99
9935;BME280;5006;41.828;23.478;2023-05-19T02:39:45;90381.44;;;19.45;62.16
9935;BME280;5006;41.828;23.478;2023-05-19T02:40:50;90385.28;;;19.69;61.54
9935;BME280;5006;41.828;23.478;2023-05-19T02:41:57;90389.53;;;19.70;61.30
9935;BME280;5006;41.828;23.478;2023-05-19T02:43:01;90392.63;;;18.72;63.58
9935;BME280;5006;41.828;23.478;2023-05-19T02:44:08;90387.50;;;19.49;61.86
9935;BME280;5006;41.828;23.478;2023-05-19T02:45:14;90387.41;;;19.52;62.85
9935;BME280;5006;41.828;23.478;2023-05-19T02:46:21;90389.75;;;19.63;62.11
9935;BME280;5006;41.828;23.478;2023-05-19T02:47:25;90388.16;;;19.53;62.53
9935;BME280;5006;41.828;23.478;2023-05-19T02:48:33;90383.41;;;19.32;62.90
9935;BME280;5006;41.828;23.478;2023-05-19T02:49:39;90385.13;;;19.84;61.71
9935;BME280;5006;41.828;23.478;2023-05-19T02:50:47;90394.94;;;19.36;62.21
9935;BME280;5006;41.828;23.478;2023-05-19T02:51:52;90390.59;;;19.72;61.44
9935;BME280;5006;41.828;23.478;2023-05-19T02:52:58;90390.59;;;20.18;60.40
9935;BME280;5006;41.828;23.478;2023-05-19T02:54:03;90391.31;;;19.51;61.70
9935;BME280;5006;41.828;23.478;2023-05-19T02:55:09;90395.34;;;19.93;60.66
9935;BME280;5006;41.828;23.478;2023-05-19T02:56:20;90393.94;;;19.88;60.62
9935;BME280;5006;41.828;23.478;2023-05-19T02:57:26;90388.69;;;20.28;59.67
9935;BME280;5006;41.828;23.478;2023-05-19T02:58:31;90389.03;;;19.50;61.46
9935;BME280;5006;41.828;23.478;2023-05-19T02:59:37;90390.78;;;19.06;62.82
9935;BME280;5006;41.828;23.478;2023-05-19T03:00:42;90396.78;;;19.26;61.74
9935;BME280;5006;41.828;23.478;2023-05-19T03:01:49;90395.72;;;17.76;65.75
9935;BME280;5006;41.828;23.478;2023-05-19T03:02:54;90404.03;;;17.21;68.40
9935;BME280;5006;41.828;23.478;2023-05-19T03:04:01;90395.09;;;17.24;70.96
9935;BME280;5006;41.828;23.478;2023-05-19T03:05:07;90401.00;;;17.35;71.34
9935;BME280;5006;41.828;23.478;2023-05-19T03:06:14;90403.88;;;17.60;70.99
9935;BME280;5006;41.828;23.478;2023-05-19T03:07:21;90405.31;;;17.33;71.74
9935;BME280;5006;41.828;23.478;2023-05-19T03:08:29;90402.94;;;18.23;69.72
9935;BME280;5006;41.828;23.478;2023-05-19T03:09:34;90407.41;;;19.58;65.35
9935;BME280;5006;41.828;23.478;2023-05-19T03:10:41;90406.34;;;20.23;62.97
9935;BME280;5006;41.828;23.478;2023-05-19T03:11:45;90419.03;;;20.60;62.12
9935;BME280;5006;41.828;23.478;2023-05-19T03:12:52;90418.06;;;20.54;61.58
9935;BME280;5006;41.828;23.478;2023-05-19T03:13:57;90412.09;;;19.91;62.02
9935;BME280;5006;41.828;23.478;2023-05-19T03:15:05;90408.09;;;19.83;62.50
9935;BME280;5006;41.828;23.478;2023-05-19T03:16:10;90423.97;;;20.53;61.75
9935;BME280;5006;41.828;23.478;2023-05-19T03:17:15;90424.22;;;21.19;59.79
9935;BME280;5006;41.828;23.478;2023-05-19T03:18:21;90421.75;;;20.60;60.17
9935;BME280;5006;41.828;23.478;2023-05-19T03:19:29;90419.59;;;20.77;60.50
9935;BME280;5006;41.828;23.478;2023-05-19T03:20:36;90418.66;;;20.49;60.49
9935;BME280;5006;41.828;23.478;2023-05-19T03:21:42;90419.00;;;20.17;61.56
9935;BME280;5006;41.828;23.478;2023-05-19T03:22:47;90421.75;;;20.60;61.05
9935;BME280;5006;41.828;23.478;2023-05-19T03:23:54;90416.38;;;20.91;60.05
9935;BME280;5006;41.828;23.478;2023-05-19T03:24:59;90417.56;;;20.25;61.21
9935;BME280;5006;41.828;23.478;2023-05-19T03:26:05;90417.84;;;20.40;61.64
9935;BME280;5006;41.828;23.478;2023-05-19T03:27:12;90413.50;;;20.73;60.23
9935;BME280;5006;41.828;23.478;2023-05-19T03:28:19;90420.34;;;20.13;61.99
9935;BME280;5006;41.828;23.478;2023-05-19T03:29:24;90419.94;;;19.89;62.64
9935;BME280;5006;41.828;23.478;2023-05-19T03:30:31;90420.56;;;19.60;63.43
9935;BME280;5006;41.828;23.478;2023-05-19T03:31:45;90416.16;;;20.42;62.39
9935;BME280;5006;41.828;23.478;2023-05-19T03:32:53;90423.19;;;19.51;62.62
9935;BME280;5006;41.828;23.478;2023-05-19T03:33:58;90431.09;;;18.29;66.26
9935;BME280;5006;41.828;23.478;2023-05-19T03:35:06;90422.47;;;17.90;68.43
9935;BME280;5006;41.828;23.478;2023-05-19T03:36:11;90421.09;;;18.55;67.98
9935;BME280;5006;41.828;23.478;2023-05-19T03:37:18;90412.09;;;20.04;64.06
9935;BME280;5006;41.828;23.478;2023-05-19T03:38:24;90401.78;;;18.90;66.41
9935;BME280;5006;41.828;23.478;2023-05-19T03:39:34;90408.19;;;18.84;66.94
9935;BME280;5006;41.828;23.478;2023-05-19T03:40:39;90416.06;;;19.32;65.35
9935;BME280;5006;41.828;23.478;2023-05-19T03:41:48;90422.34;;;17.93;68.78
9935;BME280;5006;41.828;23.478;2023-05-19T03:42:54;90420.13;;;17.60;70.74
9935;BME280;5006;41.828;23.478;2023-05-19T03:43:59;90420.69;;;18.12;70.52
9935;BME280;5006;41.828;23.478;2023-05-19T03:45:07;90415.56;;;18.83;67.65
9935;BME280;5006;41.828;23.478;2023-05-19T03:46:12;90406.31;;;17.99;70.35
9935;BME280;5006;41.828;23.478;2023-05-19T03:47:27;90398.06;;;17.90;71.14
9935;BME280;5006;41.828;23.478;2023-05-19T03:49:02;90422.03;;;18.20;69.98
9935;BME280;5006;41.828;23.478;2023-05-19T03:50:32;90418.09;;;18.78;69.15
9935;BME280;5006;41.828;23.478;2023-05-19T03:51:54;90415.34;;;19.53;66.79
9935;BME280;5006;41.828;23.478;2023-05-19T03:53:07;90411.50;;;20.43;63.71
9935;BME280;5006;41.828;23.478;2023-05-19T03:54:19;90401.84;;;18.62;67.66
9935;BME280;5006;41.828;23.478;2023-05-19T03:55:26;90410.47;;;18.85;68.72
9935;BME280;5006;41.828;23.478;2023-05-19T03:56:37;90413.38;;;19.66;66.60
9935;BME280;5006;41.828;23.478;2023-05-19T03:57:46;90419.84;;;19.22;66.30
9935;BME280;5006;41.828;23.478;2023-05-19T03:58:51;90415.84;;;18.48;68.81
9935;BME280;5006;41.828;23.478;2023-05-19T03:59:59;90416.94;;;18.22;70.47
9935;BME280;5006;41.828;23.478;2023-05-19T04:01:04;90428.63;;;19.01;68.95
9935;BME280;5006;41.828;23.478;2023-05-19T04:02:10;90425.75;;;20.25;64.66
9935;BME280;5006;41.828;23.478;2023-05-19T04:03:17;90428.47;;;20.47;63.73
9935;BME280;5006;41.828;23.478;2023-05-19T04:04:23;90425.91;;;20.09;65.19
9935;BME280;5006;41.828;23.478;2023-05-19T04:05:29;90425.28;;;21.52;61.64
9935;BME280;5006;41.828;23.478;2023-05-19T04:06:35;90422.38;;;21.47;60.61
9935;BME280;5006;41.828;23.478;2023-05-19T04:07:42;90430.13;;;20.87;61.88
9935;BME280;5006;41.828;23.478;2023-05-19T04:08:47;90433.31;;;21.16;61.66
9935;BME280;5006;41.828;23.478;2023-05-19T04:09:53;90430.72;;;21.13;61.28
9935;BME280;5006;41.828;23.478;2023-05-19T04:10:58;90431.72;;;20.76;62.16
9935;BME280;5006;41.828;23.478;2023-05-19T04:12:05;90425.94;;;20.52;62.89
9935;BME280;5006;41.828;23.478;2023-05-19T04:13:10;90432.66;;;20.39;63.99
9935;BME280;5006;41.828;23.478;2023-05-19T04:14:15;90437.66;;;21.35;61.97
9935;BME280;5006;41.828;23.478;2023-05-19T04:15:21;90435.97;;;20.77;62.34
9935;BME280;5006;41.828;23.478;2023-05-19T04:16:28;90436.81;;;20.74;63.16
9935;BME280;5006;41.828;23.478;2023-05-19T04:17:33;90427.63;;;21.32;61.61
9935;BME280;5006;41.828;23.478;2023-05-19T04:18:40;90437.81;;;21.71;60.26
9935;BME280;5006;41.828;23.478;2023-05-19T04:19:46;90436.56;;;21.02;61.58
9935;BME280;5006;41.828;23.478;2023-05-19T04:20:52;90431.00;;;20.41;63.13
9935;BME280;5006;41.828;23.478;2023-05-19T04:21:59;90434.00;;;19.88;64.32
9935;BME280;5006;41.828;23.478;2023-05-19T04:23:05;90430.34;;;20.16;64.12
9935;BME280;5006;41.828;23.478;2023-05-19T04:24:11;90436.06;;;20.73;62.53
9935;BME280;5006;41.828;23.478;2023-05-19T04:25:17;90435.22;;;20.21;63.59
9935;BME280;5006;41.828;23.478;2023-05-19T04:26:24;90437.38;;;19.92;65.04
9935;BME280;5006;41.828;23.478;2023-05-19T04:27:30;90438.00;;;20.08;64.80
9935;BME280;5006;41.828;23.478;2023-05-19T04:28:36;90443.06;;;21.26;62.26
9935;BME280;5006;41.828;23.478;2023-05-19T04:29:43;90434.38;;;21.58;61.07
9935;BME280;5006;41.828;23.478;2023-05-19T04:30:49;90435.50;;;20.78;62.46
9935;BME280;5006;41.828;23.478;2023-05-19T04:31:56;90437.66;;;21.35;61.67
9935;BME280;5006;41.828;23.478;2023-05-19T04:33:02;90435.41;;;21.43;60.49
9935;BME280;5006;41.828;23.478;2023-05-19T04:34:09;90433.66;;;22.24;59.12
9935;BME280;5006;41.828;23.478;2023-05-19T04:35:14;90431.22;;;22.35;58.54
9935;BME280;5006;41.828;23.478;2023-05-19T04:36:21;90433.75;;;22.02;58.73
9935;BME280;5006;41.828;23.478;2023-05-19T04:37:30;90437.72;;;22.10;58.96
9935;BME280;5006;41.828;23.478;2023-05-19T04:38:37;90430.69;;;21.43;60.25
9935;BME280;5006;41.828;23.478;2023-05-19T04:39:44;90431.34;;;21.56;61.34
9935;BME280;5006;41.828;23.478;2023-05-19T04:40:51;90437.88;;;22.07;60.69
9935;BME280;5006;41.828;23.478;2023-05-19T04:41:57;90444.69;;;21.15;61.39
9935;BME280;5006;41.828;23.478;2023-05-19T04:43:03;90441.63;;;21.13;61.31
9935;BME280;5006;41.828;23.478;2023-05-19T04:44:09;90440.63;;;20.12;65.73
9935;BME280;5006;41.828;23.478;2023-05-19T04:45:17;90447.22;;;20.23;66.31
9935;BME280;5006;41.828;23.478;2023-05-19T04:46:25;90450.84;;;20.63;65.42
9935;BME280;5006;41.828;23.478;2023-05-19T04:47:35;90447.72;;;20.74;66.36
9935;BME280;5006;41.828;23.478;2023-05-19T04:48:42;90452.81;;;21.06;65.15
9935;BME280;5006;41.828;23.478;2023-05-19T04:49:49;90461.63;;;20.88;64.80
9935;BME280;5006;41.828;23.478;2023-05-19T04:50:59;90455.22;;;20.82;64.35
9935;BME280;5006;41.828;23.478;2023-05-19T04:52:06;90455.78;;;20.77;65.54
9935;BME280;5006;41.828;23.478;2023-05-19T04:53:16;90451.75;;;21.73;63.87
9935;BME280;5006;41.828;23.478;2023-05-19T04:54:23;90453.72;;;22.66;60.02
9935;BME280;5006;41.828;23.478;2023-05-19T04:55:29;90443.44;;;24.59;57.20
9935;BME280;5006;41.828;23.478;2023-05-19T04:56:37;90442.03;;;24.63;56.78
9935;BME280;5006;41.828;23.478;2023-05-19T04:57:43;90452.25;;;25.01;56.30
9935;BME280;5006;41.828;23.478;2023-05-19T04:58:49;90445.97;;;23.92;57.58
